Disclaimer

Please do not use the information listed here in-flight or in-navigation, as they are not provided to us by the airports but are provided by volunteers, so they might be outdated.

Search


Regions


Airport information page

Radio informations:
JULIANA TWR - 118.7 MHz
JULIANA APP - 128.95 MHz

Airport informations:
Latitude: 18° 02' 27.43" N
Longitude: 063° 06' 32.04" W
Elevation: 14 feet - 4 meters
Operating hours: Remarks
Operating agency: Civil government, landing fees and diplomatic clearance may be required
Timezone: UTC-4
Fuel: Jet A1, without icing nhibitor.

100/130 MIL Spec, low lead, aviation gasoline (BLUE)

Runway information:
09/27 - 7708 x 148 feet< - >2349 x 45 meters

Recent METARs:
TNCM 141800Z 09014KT 050V120 9999 FEW///CB SCT018 28/23 Q1014 A2994 NOSIG RMK CB W/SHRA W

Airport on the map: